createdAt,value
2022-12-23T00:01:43.561Z,0.70
2022-12-23T00:04:11.996Z,0.70
2022-12-23T00:06:40.313Z,0.70
2022-12-23T00:09:08.594Z,0.70
2022-12-23T00:11:58.286Z,0.80
2022-12-23T00:14:44.294Z,0.80
2022-12-23T00:17:22.234Z,0.80
2022-12-23T00:19:51.447Z,0.70
2022-12-23T00:22:19.939Z,0.70
2022-12-23T00:24:48.241Z,0.70
2022-12-23T00:27:17.887Z,0.60
2022-12-23T00:29:46.261Z,0.60
2022-12-23T00:32:14.627Z,0.60
2022-12-23T00:34:43.551Z,0.70
2022-12-23T00:37:11.887Z,0.60
2022-12-23T00:40:02.594Z,0.60
2022-12-23T00:42:53.292Z,0.70
2022-12-23T00:45:21.706Z,0.60
2022-12-23T00:48:07.492Z,0.60
2022-12-23T00:50:38.580Z,0.60
2022-12-23T00:53:07.188Z,0.60
2022-12-23T00:55:35.593Z,0.60
2022-12-23T00:58:05.339Z,0.70
2022-12-23T01:04:17.457Z,0.70
2022-12-23T01:06:45.783Z,0.70
2022-12-23T01:09:14.244Z,0.70
2022-12-23T01:11:42.907Z,0.70
2022-12-23T01:14:14.231Z,0.80
2022-12-23T01:16:42.647Z,0.80
2022-12-23T01:19:36.896Z,0.80
2022-12-23T01:22:05.402Z,0.80
2022-12-23T01:24:34.304Z,0.90
2022-12-23T01:27:02.665Z,0.90
2022-12-23T01:29:32.620Z,0.90
2022-12-23T01:32:01.047Z,1.00
2022-12-23T01:34:54.566Z,1.00
2022-12-23T01:37:22.845Z,1.20
2022-12-23T01:39:51.338Z,1.20
2022-12-23T01:42:38.991Z,1.20
2022-12-23T01:45:20.443Z,1.20
2022-12-23T01:47:52.913Z,1.20
2022-12-23T01:50:26.687Z,1.20
2022-12-23T01:53:07.209Z,1.20
2022-12-23T01:55:40.133Z,1.30
2022-12-23T01:58:13.148Z,1.30
2022-12-23T02:01:01.502Z,1.30
2022-12-23T02:03:45.708Z,1.30
2022-12-23T02:06:38.630Z,1.20
2022-12-23T02:09:19.232Z,1.20
2022-12-23T02:12:13.288Z,1.30
2022-12-23T02:15:12.323Z,1.30
2022-12-23T02:17:48.947Z,1.30
2022-12-23T02:20:44.061Z,1.30
2022-12-23T02:23:53.544Z,1.40
2022-12-23T02:26:56.477Z,1.40
2022-12-23T02:29:57.988Z,1.40
2022-12-23T02:32:36.951Z,1.40
2022-12-23T02:35:12.621Z,1.40
2022-12-23T02:37:51.693Z,1.40
2022-12-23T02:40:32.682Z,1.40
2022-12-23T02:43:05.689Z,1.50
2022-12-23T02:45:39.593Z,1.50
2022-12-23T02:48:14.839Z,1.40
2022-12-23T02:50:46.297Z,1.40
2022-12-23T02:53:56.660Z,1.50
2022-12-23T02:56:28.355Z,1.60
2022-12-23T02:59:01.205Z,1.50
2022-12-23T03:01:32.256Z,1.40
2022-12-23T03:04:02.324Z,1.40
2022-12-23T03:06:36.593Z,1.40
2022-12-23T03:09:05.318Z,1.40
2022-12-23T03:11:43.560Z,1.40
2022-12-23T03:14:46.346Z,1.40
2022-12-23T03:17:39.827Z,1.40
2022-12-23T03:20:15.919Z,1.40
2022-12-23T03:22:55.855Z,1.40
2022-12-23T03:25:28.249Z,1.40
2022-12-23T03:28:02.501Z,1.40
2022-12-23T03:30:32.299Z,1.30
2022-12-23T03:33:06.012Z,1.40
2022-12-23T03:35:39.615Z,1.40
2022-12-23T03:38:11.719Z,1.30
2022-12-23T03:40:43.611Z,1.40
2022-12-23T03:43:16.454Z,1.40
2022-12-23T03:45:50.004Z,1.40
2022-12-23T03:48:23.048Z,1.40
2022-12-23T03:50:57.179Z,1.40
2022-12-23T03:53:30.730Z,1.40
2022-12-23T03:56:03.185Z,1.30
2022-12-23T03:58:39.078Z,1.40
2022-12-23T04:01:18.384Z,1.40
2022-12-23T04:03:56.143Z,1.50
2022-12-23T04:06:28.459Z,1.50
2022-12-23T04:08:58.147Z,1.50
2022-12-23T04:11:26.902Z,1.60
2022-12-23T04:13:55.409Z,1.50
2022-12-23T04:16:24.279Z,1.60
2022-12-23T04:18:52.705Z,1.60
2022-12-23T04:21:21.176Z,1.60
2022-12-23T04:23:50.849Z,1.60
2022-12-23T04:26:19.164Z,1.70
2022-12-23T04:28:47.472Z,1.60
2022-12-23T04:31:15.870Z,1.70
2022-12-23T04:33:44.242Z,1.70
2022-12-23T04:36:21.549Z,1.60
2022-12-23T04:38:51.353Z,1.60
2022-12-23T04:41:19.687Z,1.70
2022-12-23T04:43:53.003Z,1.70
2022-12-23T04:46:21.936Z,1.70
2022-12-23T04:48:50.396Z,1.70
2022-12-23T04:51:18.718Z,1.70
2022-12-23T04:53:50.317Z,1.70
2022-12-23T04:56:18.659Z,1.80
2022-12-23T04:58:46.972Z,1.70
2022-12-23T05:01:15.348Z,1.70
2022-12-23T05:03:43.798Z,1.80
2022-12-23T05:06:12.199Z,1.80
2022-12-23T05:08:40.545Z,1.90
2022-12-23T05:11:10.350Z,1.80
2022-12-23T05:13:38.621Z,1.80
2022-12-23T05:16:08.035Z,1.80
2022-12-23T05:18:36.416Z,1.80
2022-12-23T05:21:05.115Z,1.80
2022-12-23T05:23:33.487Z,1.80
2022-12-23T05:26:01.876Z,1.80
2022-12-23T05:28:31.972Z,1.80
2022-12-23T05:31:01.468Z,1.80
2022-12-23T05:33:54.400Z,1.80
2022-12-23T05:36:23.675Z,1.90
2022-12-23T05:39:17.514Z,1.90
2022-12-23T05:41:45.897Z,1.90
2022-12-23T05:44:15.595Z,1.90
2022-12-23T05:46:43.970Z,1.90
2022-12-23T05:49:12.288Z,2.00
2022-12-23T05:51:40.711Z,1.90
2022-12-23T05:54:09.077Z,1.90
2022-12-23T05:56:37.356Z,2.00
2022-12-23T05:59:05.745Z,2.00
2022-12-23T06:01:35.578Z,2.00
2022-12-23T06:04:04.218Z,2.00
2022-12-23T06:06:32.707Z,2.00
2022-12-23T06:09:01.121Z,2.00
2022-12-23T06:11:29.555Z,2.10
2022-12-23T06:13:57.912Z,2.10
2022-12-23T06:16:26.301Z,2.10
2022-12-23T06:18:57.684Z,2.00
2022-12-23T06:21:26.742Z,2.10
2022-12-23T06:23:55.255Z,2.10
2022-12-23T06:26:23.724Z,2.10
2022-12-23T06:28:52.020Z,2.10
2022-12-23T06:31:20.526Z,2.10
2022-12-23T06:33:48.914Z,2.10
2022-12-23T06:36:18.664Z,2.10
2022-12-23T06:38:48.000Z,2.10
2022-12-23T06:41:16.380Z,2.10
2022-12-23T06:43:44.723Z,2.20
2022-12-23T06:46:13.203Z,2.20
2022-12-23T06:48:41.643Z,2.20
2022-12-23T06:51:11.189Z,2.20
2022-12-23T06:53:41.017Z,2.20
2022-12-23T06:56:09.392Z,2.20
2022-12-23T06:58:37.753Z,2.20
2022-12-23T07:01:06.606Z,2.20
2022-12-23T07:03:35.104Z,2.20
2022-12-23T07:06:03.665Z,2.20
2022-12-23T07:09:02.814Z,2.20
2022-12-23T07:11:31.133Z,2.30
2022-12-23T07:14:01.517Z,2.50
2022-12-23T07:16:30.066Z,2.90
2022-12-23T07:18:58.469Z,3.00
2022-12-23T07:21:29.864Z,3.00
2022-12-23T07:23:58.355Z,2.90
2022-12-23T07:26:27.995Z,2.70
2022-12-23T07:28:56.359Z,2.70
2022-12-23T07:31:24.796Z,2.70
2022-12-23T07:33:53.219Z,2.90
2022-12-23T07:36:21.559Z,3.10
2022-12-23T07:38:51.863Z,3.40
2022-12-23T07:41:20.380Z,3.70
2022-12-23T07:43:50.148Z,3.80
2022-12-23T07:46:19.628Z,4.00
2022-12-23T07:48:48.003Z,4.00
2022-12-23T07:51:16.369Z,3.90
2022-12-23T07:53:44.793Z,3.80
2022-12-23T07:56:13.143Z,3.80
2022-12-23T07:58:41.456Z,3.80
2022-12-23T08:01:11.216Z,3.90
2022-12-23T08:03:39.745Z,3.90
2022-12-23T08:06:12.422Z,4.00
2022-12-23T08:08:41.943Z,4.10
2022-12-23T08:11:13.600Z,4.20
2022-12-23T08:13:44.626Z,4.40
2022-12-23T08:16:20.548Z,4.80
2022-12-23T08:18:48.987Z,5.20
2022-12-23T08:21:19.524Z,5.50
2022-12-23T08:23:48.356Z,5.70
2022-12-23T08:26:18.480Z,5.70
2022-12-23T08:28:47.283Z,5.60
2022-12-23T08:31:18.238Z,5.60
2022-12-23T08:33:50.039Z,5.80
2022-12-23T08:36:23.281Z,5.80
2022-12-23T08:38:53.250Z,5.70
2022-12-23T08:41:23.745Z,5.50
2022-12-23T08:44:18.114Z,5.40
2022-12-23T08:46:46.924Z,5.40
2022-12-23T08:49:16.756Z,5.30
2022-12-23T08:51:45.108Z,5.20
2022-12-23T08:54:13.493Z,5.20
2022-12-23T08:56:42.931Z,5.30
2022-12-23T08:59:18.997Z,5.30
2022-12-23T09:01:48.908Z,5.20
2022-12-23T09:04:18.796Z,5.10
2022-12-23T09:06:47.108Z,5.00
2022-12-23T09:09:16.679Z,5.00
2022-12-23T09:11:47.465Z,4.90
2022-12-23T09:14:15.795Z,4.90
2022-12-23T09:16:44.085Z,4.80
2022-12-23T09:19:12.465Z,4.80
2022-12-23T09:21:42.192Z,4.80
2022-12-23T09:24:10.743Z,4.80
2022-12-23T09:26:39.035Z,4.80
2022-12-23T09:29:07.446Z,4.80
2022-12-23T09:31:38.796Z,4.80
2022-12-23T09:34:07.242Z,4.80
2022-12-23T09:36:35.630Z,4.90
2022-12-23T09:39:05.764Z,4.90
2022-12-23T09:41:52.755Z,4.90
2022-12-23T09:44:44.894Z,4.90
2022-12-23T09:47:19.143Z,4.90
2022-12-23T09:49:51.673Z,4.90
2022-12-23T09:52:26.009Z,4.90
2022-12-23T09:54:57.115Z,4.90
2022-12-23T09:57:35.365Z,5.00
2022-12-23T10:00:09.030Z,5.00
2022-12-23T10:03:09.274Z,5.10
2022-12-23T10:05:48.303Z,5.20
2022-12-23T10:08:23.205Z,5.30
2022-12-23T10:10:58.054Z,5.40
2022-12-23T10:13:29.772Z,5.60
2022-12-23T10:16:03.561Z,5.80
2022-12-23T10:18:58.687Z,5.90
2022-12-23T10:21:33.029Z,6.10
2022-12-23T10:24:04.591Z,6.20
2022-12-23T10:26:44.452Z,6.30
2022-12-23T10:29:19.604Z,6.50
2022-12-23T10:32:05.095Z,6.70
2022-12-23T10:34:44.780Z,7.00
2022-12-23T10:37:20.435Z,7.40
2022-12-23T10:39:59.463Z,7.80
2022-12-23T10:42:36.373Z,8.10
2022-12-23T10:45:44.902Z,8.30
2022-12-23T10:48:28.819Z,8.60
2022-12-23T10:51:01.001Z,9.10
2022-12-23T10:53:36.868Z,9.40
2022-12-23T10:56:07.567Z,9.40
2022-12-23T10:58:41.976Z,9.30
2022-12-23T11:01:20.311Z,9.20
2022-12-23T11:04:00.084Z,9.00
2022-12-23T11:06:34.892Z,8.80
2022-12-23T11:09:06.732Z,8.70
2022-12-23T11:11:54.470Z,8.60
2022-12-23T11:14:37.161Z,8.40
2022-12-23T11:17:07.366Z,8.30
2022-12-23T11:19:35.757Z,8.20
2022-12-23T11:22:21.532Z,8.10
2022-12-23T11:24:50.038Z,8.10
2022-12-23T11:27:19.243Z,8.00
2022-12-23T11:29:52.564Z,7.90
2022-12-23T11:32:25.305Z,7.90
2022-12-23T11:34:54.345Z,7.90
2022-12-23T11:37:47.869Z,7.90
2022-12-23T11:40:57.661Z,7.90
2022-12-23T11:43:27.539Z,7.90
2022-12-23T11:46:22.285Z,7.90
2022-12-23T11:48:54.718Z,7.80
2022-12-23T11:51:27.141Z,7.90
2022-12-23T11:54:01.653Z,7.90
2022-12-23T11:56:35.492Z,8.00
2022-12-23T11:59:08.626Z,8.00
2022-12-23T12:01:39.967Z,8.10
2022-12-23T12:04:10.542Z,8.20
2022-12-23T12:06:49.661Z,8.40
2022-12-23T12:09:20.338Z,8.50
2022-12-23T12:11:51.888Z,8.60
2022-12-23T12:14:25.547Z,8.80
2022-12-23T12:17:02.851Z,8.90
2022-12-23T12:19:36.790Z,9.10
2022-12-23T12:22:16.274Z,9.20
2022-12-23T12:24:49.737Z,9.40
2022-12-23T12:27:19.398Z,9.50
2022-12-23T12:29:53.721Z,9.60
2022-12-23T12:32:31.575Z,9.70
2022-12-23T12:35:04.218Z,9.60
2022-12-23T12:37:39.720Z,9.70
2022-12-23T12:40:57.844Z,9.90
2022-12-23T12:43:31.381Z,10.10
2022-12-23T12:46:12.703Z,10.50
2022-12-23T12:48:49.486Z,10.60
2022-12-23T12:51:25.442Z,10.70
2022-12-23T12:54:07.620Z,10.80
2022-12-23T12:56:41.643Z,10.80
2022-12-23T12:59:17.763Z,10.90
2022-12-23T13:02:01.679Z,10.90
2022-12-23T13:05:04.336Z,11.00
2022-12-23T13:07:40.508Z,11.10
2022-12-23T13:10:17.214Z,11.10
2022-12-23T13:12:56.553Z,11.10
2022-12-23T13:15:32.884Z,11.10
2022-12-23T13:18:17.127Z,11.10
2022-12-23T13:20:54.663Z,11.20
2022-12-23T13:23:46.660Z,11.20
2022-12-23T13:26:24.708Z,11.10
2022-12-23T13:29:04.285Z,11.00
2022-12-23T13:31:45.770Z,11.10
2022-12-23T13:34:27.382Z,11.10
2022-12-23T13:37:18.399Z,11.10
2022-12-23T13:39:58.063Z,11.00
2022-12-23T13:42:34.400Z,11.00
2022-12-23T13:45:03.527Z,11.00
2022-12-23T13:47:45.596Z,11.00
2022-12-23T13:50:38.694Z,10.90
2022-12-23T13:53:23.929Z,10.90
2022-12-23T13:56:03.563Z,11.00
2022-12-23T13:58:33.234Z,11.00
2022-12-23T14:01:23.096Z,10.90
2022-12-23T14:03:52.146Z,10.90
2022-12-23T14:06:46.029Z,10.80
2022-12-23T14:09:17.598Z,10.80
2022-12-23T14:11:46.287Z,10.70
2022-12-23T14:14:23.607Z,10.70
2022-12-23T14:17:03.516Z,10.60
2022-12-23T14:19:51.902Z,10.60
2022-12-23T14:22:37.218Z,10.50
2022-12-23T14:25:44.539Z,10.40
2022-12-23T14:28:29.720Z,10.30
2022-12-23T14:30:59.046Z,10.10
2022-12-23T14:34:03.585Z,10.00
2022-12-23T14:36:32.014Z,9.90
2022-12-23T14:39:47.461Z,9.90
2022-12-23T14:42:41.590Z,9.80
2022-12-23T14:45:35.437Z,9.70
2022-12-23T14:48:05.129Z,9.60
2022-12-23T14:50:40.515Z,9.60
2022-12-23T14:53:30.183Z,9.60
2022-12-23T14:56:24.248Z,9.50
2022-12-23T14:59:06.191Z,9.40
2022-12-23T15:01:39.578Z,9.40
2022-12-23T15:04:17.420Z,9.30
2022-12-23T15:06:48.971Z,9.20
2022-12-23T15:09:27.452Z,9.20
2022-12-23T15:11:56.963Z,9.20
2022-12-23T15:14:33.832Z,9.10
2022-12-23T15:17:16.299Z,9.00
2022-12-23T15:19:47.181Z,8.90
2022-12-23T15:22:23.777Z,8.80
2022-12-23T15:24:56.768Z,8.80
2022-12-23T15:27:27.813Z,8.80
2022-12-23T15:29:59.551Z,8.70
2022-12-23T15:32:29.122Z,8.60
2022-12-23T15:35:02.566Z,8.60
2022-12-23T15:37:32.610Z,8.50
2022-12-23T15:40:09.919Z,8.50
2022-12-23T15:42:40.276Z,8.40
2022-12-23T15:45:34.887Z,8.40
2022-12-23T15:48:05.321Z,8.40
2022-12-23T15:50:40.541Z,8.30
2022-12-23T15:53:17.086Z,8.10
2022-12-23T15:55:47.242Z,8.10
2022-12-23T15:58:20.643Z,8.10
2022-12-23T16:00:55.692Z,8.10
2022-12-23T16:03:31.104Z,8.00
2022-12-23T16:06:12.172Z,7.90
2022-12-23T16:08:40.902Z,7.80
2022-12-23T16:11:16.696Z,7.80
2022-12-23T16:13:58.724Z,7.70
2022-12-23T16:16:39.871Z,7.70
2022-12-23T16:19:24.653Z,7.50
2022-12-23T16:21:53.097Z,7.50
2022-12-23T16:24:22.230Z,7.40
2022-12-23T16:26:50.693Z,7.30
2022-12-23T16:29:24.066Z,7.30
2022-12-23T16:32:01.499Z,7.30
2022-12-23T16:34:32.818Z,7.20
2022-12-23T16:37:01.314Z,7.10
2022-12-23T16:39:29.678Z,7.00
2022-12-23T16:41:57.942Z,6.90
2022-12-23T16:44:26.292Z,6.80
2022-12-23T16:46:56.046Z,6.70
2022-12-23T16:49:31.378Z,6.60
2022-12-23T16:52:02.105Z,6.50
2022-12-23T16:54:30.487Z,6.40
2022-12-23T16:56:59.861Z,6.30
2022-12-23T16:59:28.209Z,6.30
2022-12-23T17:02:20.760Z,6.20
2022-12-23T17:04:49.268Z,6.20
2022-12-23T17:07:17.636Z,6.10
2022-12-23T17:09:45.940Z,6.00
2022-12-23T17:12:14.340Z,5.90
2022-12-23T17:14:42.683Z,5.90
2022-12-23T17:17:16.741Z,5.80
2022-12-23T17:20:10.236Z,5.80
2022-12-23T17:22:39.343Z,5.70
2022-12-23T17:25:08.199Z,5.60
2022-12-23T17:27:36.522Z,5.60
2022-12-23T17:30:05.821Z,5.50
2022-12-23T17:33:03.361Z,5.50
2022-12-23T17:35:31.793Z,5.40
2022-12-23T17:38:00.135Z,5.30
2022-12-23T17:40:28.493Z,5.20
2022-12-23T17:42:57.785Z,5.20
2022-12-23T17:45:30.036Z,5.00
2022-12-23T17:47:59.817Z,5.00
2022-12-23T17:50:30.040Z,4.90
2022-12-23T17:52:58.388Z,4.80
2022-12-23T17:55:27.062Z,4.80
2022-12-23T17:57:55.363Z,4.70
2022-12-23T18:00:31.958Z,4.70
2022-12-23T18:03:24.657Z,4.60
2022-12-23T18:06:01.136Z,4.60
2022-12-23T18:08:30.468Z,4.50
2022-12-23T18:11:21.630Z,4.50
2022-12-23T18:13:51.300Z,4.50
2022-12-23T18:16:21.675Z,4.50
2022-12-23T18:18:50.043Z,4.40
2022-12-23T18:21:23.842Z,4.40
2022-12-23T18:23:53.413Z,4.30
2022-12-23T18:26:22.154Z,4.40
2022-12-23T18:28:51.392Z,4.20
2022-12-23T18:31:21.775Z,4.10
2022-12-23T18:33:50.193Z,4.10
2022-12-23T18:36:24.207Z,4.10
2022-12-23T18:38:53.009Z,4.10
2022-12-23T18:41:21.692Z,4.10
2022-12-23T18:43:50.202Z,4.10
2022-12-23T18:46:20.900Z,4.10
2022-12-23T18:48:49.636Z,4.10
2022-12-23T18:51:20.021Z,4.10
2022-12-23T18:53:50.878Z,4.10
2022-12-23T18:56:21.173Z,4.10
2022-12-23T18:59:16.254Z,4.10
2022-12-23T19:01:48.857Z,4.10
2022-12-23T19:04:17.317Z,4.10
2022-12-23T19:06:45.952Z,4.10
2022-12-23T19:09:19.604Z,4.10
2022-12-23T19:11:49.149Z,4.10
2022-12-23T19:14:17.606Z,4.10
2022-12-23T19:16:51.879Z,4.10
2022-12-23T19:19:21.227Z,4.10
2022-12-23T19:21:49.571Z,4.00
2022-12-23T19:24:31.750Z,4.00
2022-12-23T19:27:00.132Z,3.90
2022-12-23T19:29:28.545Z,3.90
2022-12-23T19:32:21.964Z,3.90
2022-12-23T19:35:21.744Z,3.90
2022-12-23T19:37:51.065Z,4.00
2022-12-23T19:40:21.111Z,4.00
2022-12-23T19:42:49.457Z,4.00
2022-12-23T19:45:17.925Z,4.00
2022-12-23T19:48:11.013Z,4.00
2022-12-23T19:50:39.320Z,4.00
2022-12-23T19:53:08.235Z,4.00
2022-12-23T19:55:37.949Z,4.00
2022-12-23T19:58:06.233Z,3.90
2022-12-23T20:01:12.259Z,3.80
2022-12-23T20:03:42.976Z,3.70
2022-12-23T20:06:16.146Z,3.60
2022-12-23T20:08:44.789Z,3.60
2022-12-23T20:11:17.580Z,3.60
2022-12-23T20:13:46.482Z,3.60
2022-12-23T20:16:15.049Z,3.60
2022-12-23T20:18:43.479Z,3.60
2022-12-23T20:21:11.737Z,3.60
2022-12-23T20:24:05.238Z,3.60
2022-12-23T20:26:35.754Z,3.60
2022-12-23T20:29:05.615Z,3.60
2022-12-23T20:31:35.630Z,3.60
2022-12-23T20:34:04.437Z,3.60
2022-12-23T20:36:34.879Z,3.50
2022-12-23T20:39:04.015Z,3.40
2022-12-23T20:41:34.215Z,3.40
2022-12-23T20:44:33.303Z,3.30
2022-12-23T20:46:50.968Z,3.30
2022-12-23T20:49:19.389Z,3.30
2022-12-23T20:51:48.690Z,3.30
2022-12-23T20:54:26.354Z,3.30
2022-12-23T20:56:59.742Z,3.30
2022-12-23T21:00:17.441Z,3.30
2022-12-23T21:03:36.798Z,3.20
2022-12-23T21:06:05.449Z,3.20
2022-12-23T21:08:33.895Z,3.20
2022-12-23T21:11:02.273Z,3.10
2022-12-23T21:13:32.019Z,3.00
2022-12-23T21:16:04.137Z,3.00
2022-12-23T21:18:32.778Z,2.90
2022-12-23T21:21:02.149Z,2.90
2022-12-23T21:23:30.990Z,2.90
2022-12-23T21:26:14.876Z,3.00
2022-12-23T21:28:46.273Z,3.10
2022-12-23T21:31:15.901Z,3.10
2022-12-23T21:33:45.456Z,3.20
2022-12-23T21:36:20.017Z,3.20
2022-12-23T21:38:50.334Z,3.30
2022-12-23T21:41:20.652Z,3.40
2022-12-23T21:43:51.032Z,3.50
2022-12-23T21:46:21.426Z,3.50
2022-12-23T21:48:50.805Z,3.50
2022-12-23T21:51:21.236Z,3.70
2022-12-23T21:53:52.795Z,3.70
2022-12-23T21:56:24.283Z,3.60
2022-12-23T21:58:57.208Z,3.70
2022-12-23T22:01:26.591Z,3.80
2022-12-23T22:03:56.186Z,3.80
2022-12-23T22:06:26.655Z,3.80
2022-12-23T22:09:20.470Z,3.80
2022-12-23T22:11:49.265Z,3.90
2022-12-23T22:14:19.842Z,3.80
2022-12-23T22:16:48.314Z,3.80
2022-12-23T22:19:17.052Z,3.80
2022-12-23T22:21:45.406Z,3.90
2022-12-23T22:24:13.771Z,3.90
2022-12-23T22:26:42.248Z,3.90
2022-12-23T22:29:12.577Z,3.90
2022-12-23T22:31:45.748Z,3.80
2022-12-23T22:34:16.683Z,3.70
2022-12-23T22:36:45.176Z,3.60
2022-12-23T22:39:20.082Z,3.50
2022-12-23T22:41:50.158Z,3.40
2022-12-23T22:44:18.801Z,3.30
2022-12-23T22:46:48.911Z,3.30
2022-12-23T22:49:18.735Z,3.20
2022-12-23T22:51:47.344Z,3.20
2022-12-23T22:54:15.692Z,3.10
2022-12-23T22:56:44.229Z,3.10
2022-12-23T22:59:21.327Z,3.00
2022-12-23T23:01:52.214Z,3.00
2022-12-23T23:04:20.860Z,2.90
2022-12-23T23:06:49.351Z,2.90
2022-12-23T23:09:43.299Z,2.90
2022-12-23T23:12:11.797Z,2.90
2022-12-23T23:14:53.381Z,2.90
2022-12-23T23:17:25.661Z,2.80
2022-12-23T23:19:54.718Z,2.80
2022-12-23T23:22:25.038Z,2.80
2022-12-23T23:24:53.466Z,2.80
2022-12-23T23:27:21.919Z,2.70
2022-12-23T23:30:15.319Z,2.70
2022-12-23T23:32:49.991Z,2.70
2022-12-23T23:35:18.491Z,2.70
2022-12-23T23:37:46.944Z,2.60
2022-12-23T23:40:15.482Z,2.50
2022-12-23T23:42:43.840Z,2.50
2022-12-23T23:45:14.802Z,2.50
2022-12-23T23:47:43.259Z,2.40
2022-12-23T23:50:13.265Z,2.40
2022-12-23T23:52:41.560Z,2.30
2022-12-23T23:55:10.633Z,2.20
2022-12-23T23:57:39.094Z,2.20
